Time;durP1;ratioP1;P1;durP2;ratioP2;P2;SDS_P1;SDS_P2;PMS_P1;PMS_P2;Temp;Humidity;BMP_temperature;BMP_pressure;BME280_temperature;BME280_humidity;BME280_pressure;Samples;Min_cycle;Max_cycle;Signal;HPM_P1;HPM_P2
2021/06/23 00:01:11;;;;;;;7.43;3.20;;;14.20;80.80;;;;;;4670676;30;20270;-72
2021/06/23 00:03:38;;;;;;;4.35;2.83;;;14.10;80.90;;;;;;4695353;30;20119;-72
2021/06/23 00:06:05;;;;;;;5.45;3.00;;;14.20;81.10;;;;;;4685259;30;20119;-72
2021/06/23 00:08:33;;;;;;;6.15;2.65;;;14.20;81.20;;;;;;4697198;30;20046;-72
2021/06/23 00:11:02;;;;;;;5.18;3.15;;;14.20;81.30;;;;;;4687147;30;20155;-73
2021/06/23 00:13:33;;;;;;;8.18;2.95;;;14.20;81.40;;;;;;4677429;30;20058;-72
2021/06/23 00:16:04;;;;;;;6.95;3.08;;;14.20;81.50;;;;;;4686338;30;20061;-72
2021/06/23 00:18:32;;;;;;;7.05;2.97;;;14.20;81.60;;;;;;4696740;30;20046;-72
2021/06/23 00:20:59;;;;;;;7.35;3.05;;;14.20;81.80;;;;;;4703105;30;20057;-72
2021/06/23 00:23:26;;;;;;;4.85;3.40;;;14.20;81.90;;;;;;4678607;30;20164;-72
2021/06/23 00:25:55;;;;;;;6.03;3.40;;;14.20;82.00;;;;;;4695993;30;20046;-72
2021/06/23 00:28:23;;;;;;;5.72;3.80;;;14.20;82.00;;;;;;4676719;30;20076;-71
2021/06/23 00:30:50;;;;;;;5.57;2.95;;;14.20;82.20;;;;;;4692877;30;20045;-72
2021/06/23 00:33:20;;;;;;;7.22;3.42;;;14.20;82.40;;;;;;4686317;30;20088;-72
2021/06/23 00:35:51;;;;;;;7.90;3.35;;;14.20;82.50;;;;;;4682940;30;20065;-72
2021/06/23 00:38:18;;;;;;;7.60;2.97;;;14.20;82.50;;;;;;4698767;30;20049;-72
2021/06/23 00:40:45;;;;;;;6.45;3.47;;;14.20;82.70;;;;;;4682073;30;20058;-72
2021/06/23 01:06:48;;;;;;;4.22;3.10;;;13.90;83.50;;;;;;4726459;24;20064;-74
2021/06/23 01:09:15;;;;;;;4.00;2.58;;;13.90;83.70;;;;;;4735193;30;20051;-74
2021/06/23 01:12:05;;;;;;;6.03;2.90;;;13.90;83.70;;;;;;4756325;30;20046;-73
2021/06/23 01:14:37;;;;;;;4.28;2.53;;;13.90;83.80;;;;;;4744850;30;20079;-74
2021/06/23 01:17:05;;;;;;;4.60;2.58;;;13.90;83.90;;;;;;4748630;30;20103;-73
2021/06/23 01:19:41;;;;;;;5.85;2.85;;;13.90;84.00;;;;;;4751498;30;20512;-74
2021/06/23 01:22:10;;;;;;;5.28;3.00;;;13.90;83.90;;;;;;4748090;30;20098;-74
2021/06/23 01:24:37;;;;;;;5.07;2.70;;;13.90;84.10;;;;;;4744168;30;20055;-74
2021/06/23 01:27:05;;;;;;;4.18;3.00;;;14.00;84.10;;;;;;4755425;30;20127;-74
2021/06/23 01:29:33;;;;;;;3.72;2.67;;;14.00;84.00;;;;;;4738002;30;20402;-74
2021/06/23 01:32:09;;;;;;;4.47;2.65;;;14.00;84.10;;;;;;4732764;30;20485;-74
2021/06/23 01:34:37;;;;;;;4.80;3.13;;;14.00;84.20;;;;;;4716596;30;20056;-73
2021/06/23 01:37:04;;;;;;;4.57;3.03;;;14.00;84.20;;;;;;4733591;30;20352;-74
2021/06/23 01:39:31;;;;;;;5.53;2.72;;;14.00;84.30;;;;;;4735986;30;20501;-74
2021/06/23 01:41:58;;;;;;;6.15;2.80;;;14.00;84.40;;;;;;4745343;30;20525;-75
2021/06/23 01:44:30;;;;;;;7.00;3.35;;;14.00;84.50;;;;;;4729348;30;20056;-74
2021/06/23 01:46:57;;;;;;;6.78;3.20;;;14.00;84.40;;;;;;4739165;30;20474;-74
2021/06/23 01:49:26;;;;;;;4.30;3.10;;;14.00;84.50;;;;;;4724023;30;20040;-74
2021/06/23 01:51:54;;;;;;;4.75;2.75;;;14.00;84.50;;;;;;4730426;30;20532;-74
2021/06/23 01:54:21;;;;;;;4.13;2.60;;;14.00;84.60;;;;;;4747195;30;20074;-74
2021/06/23 01:56:48;;;;;;;4.20;2.33;;;14.00;84.90;;;;;;4743016;30;20094;-73
2021/06/23 01:59:17;;;;;;;4.45;3.15;;;14.00;84.50;;;;;;4741459;30;20044;-74
2021/06/23 02:02:20;;;;;;;4.28;2.75;;;14.00;84.50;;;;;;4745882;30;20520;-74
2021/06/23 02:05:11;;;;;;;6.18;3.08;;;14.00;84.50;;;;;;4722749;30;20102;-79
2021/06/23 02:07:54;;;;;;;4.05;2.33;;;13.90;84.70;;;;;;4730172;30;20111;-79
2021/06/23 02:11:03;;;;;;;5.22;2.83;;;13.90;84.80;;;;;;4732159;30;20041;-79
2021/06/23 02:14:12;;;;;;;4.57;2.58;;;13.90;84.80;;;;;;4717003;30;20055;-79
2021/06/23 02:16:53;;;;;;;6.30;2.30;;;13.90;84.90;;;;;;4744577;30;20072;-79
2021/06/23 02:19:24;;;;;;;6.93;2.60;;;13.80;84.90;;;;;;4734561;30;20037;-80
2021/06/23 02:22:19;;;;;;;4.95;2.92;;;13.90;84.90;;;;;;4707830;30;20594;-80
2021/06/23 02:25:13;;;;;;;6.90;2.70;;;13.90;85.00;;;;;;4718636;30;20509;-80
2021/06/23 02:27:57;;;;;;;6.20;2.72;;;13.90;85.10;;;;;;4724283;30;20076;-80
2021/06/23 02:30:24;;;;;;;3.40;2.30;;;13.90;85.10;;;;;;4727658;30;20505;-80
2021/06/23 02:32:57;;;;;;;6.57;2.67;;;13.90;85.00;;;;;;4725126;30;20056;-80
2021/06/23 02:35:36;;;;;;;6.07;2.00;;;13.90;85.10;;;;;;4726384;30;20056;-80
2021/06/23 02:38:13;;;;;;;5.32;3.10;;;13.90;85.20;;;;;;4708931;30;20114;-80
2021/06/23 02:40:42;;;;;;;7.20;3.10;;;13.90;85.20;;;;;;4734288;30;20552;-80
2021/06/23 02:43:09;;;;;;;6.53;2.78;;;13.90;85.20;;;;;;4743210;30;20520;-76
2021/06/23 02:45:37;;;;;;;5.88;2.75;;;13.90;85.10;;;;;;4703875;30;20054;-74
2021/06/23 02:48:05;;;;;;;4.20;2.90;;;13.90;85.10;;;;;;4709868;30;20053;-74
2021/06/23 02:50:59;;;;;;;4.00;2.60;;;13.90;85.30;;;;;;4729928;30;20061;-75
2021/06/23 02:53:29;;;;;;;4.55;2.78;;;13.90;85.20;;;;;;4733784;30;20517;-74
2021/06/23 02:55:58;;;;;;;5.07;2.72;;;13.90;85.20;;;;;;4706422;30;20146;-75
2021/06/23 02:58:26;;;;;;;6.85;3.40;;;13.90;85.20;;;;;;4728080;30;20052;-74
2021/06/23 03:00:54;;;;;;;5.53;3.22;;;13.90;85.20;;;;;;4740842;30;20091;-74
2021/06/23 03:03:32;;;;;;;3.15;2.83;;;13.90;85.20;;;;;;4708078;30;20060;-74
2021/06/23 03:06:03;;;;;;;5.22;2.53;;;14.00;85.40;;;;;;4710217;30;20441;-74
2021/06/23 03:08:31;;;;;;;3.63;2.30;;;14.00;85.30;;;;;;4706774;30;20132;-74
2021/06/23 03:10:59;;;;;;;8.10;2.88;;;14.00;85.30;;;;;;4736763;30;20121;-74
2021/06/23 03:13:58;;;;;;;4.00;2.70;;;14.00;85.30;;;;;;4694144;30;20113;-74
2021/06/23 03:16:33;;;;;;;4.82;3.15;;;14.00;85.30;;;;;;4711351;30;20048;-74
2021/06/23 03:19:00;;;;;;;5.90;2.65;;;14.00;85.30;;;;;;4710616;30;20151;-74
2021/06/23 03:21:28;;;;;;;3.95;2.92;;;14.00;85.30;;;;;;4731214;30;20698;-74
2021/06/23 03:23:55;;;;;;;5.50;2.72;;;14.00;85.40;;;;;;4725864;30;20060;-75
2021/06/23 03:26:28;;;;;;;6.00;3.20;;;13.90;85.30;;;;;;4719136;30;20044;-74
2021/06/23 03:28:57;;;;;;;5.43;2.42;;;14.00;85.40;;;;;;4737173;30;20036;-74
2021/06/23 03:31:24;;;;;;;6.63;2.70;;;14.00;85.40;;;;;;4724140;30;20103;-75
2021/06/23 03:33:54;;;;;;;8.43;3.05;;;14.00;85.40;;;;;;4719106;30;20037;-75
2021/06/23 03:36:29;;;;;;;5.82;2.70;;;14.00;85.40;;;;;;4734118;30;20113;-75
2021/06/23 03:38:57;;;;;;;5.10;3.42;;;14.00;85.40;;;;;;4719071;30;20056;-75
2021/06/23 03:41:29;;;;;;;;;;;13.90;85.50;;;;;;4717759;30;20072;-75
2021/06/23 03:43:56;;;;;;;5.10;2.42;;;13.90;85.90;;;;;;4711573;30;19926;-75
2021/06/23 03:46:24;;;;;;;4.45;2.50;;;13.90;85.70;;;;;;4712027;30;20529;-75
2021/06/23 03:48:52;;;;;;;4.30;2.63;;;13.90;85.70;;;;;;4726052;30;20052;-75
2021/06/23 03:51:25;;;;;;;5.22;3.05;;;13.90;85.70;;;;;;4741567;30;20040;-75
2021/06/23 03:53:52;;;;;;;7.45;2.80;;;13.90;85.70;;;;;;4729390;30;20057;-75
2021/06/23 03:56:20;;;;;;;4.93;2.50;;;13.90;85.70;;;;;;4724149;30;20110;-75
2021/06/23 03:58:48;;;;;;;5.40;2.92;;;13.90;85.80;;;;;;4706401;30;20063;-80
2021/06/23 04:01:16;;;;;;;5.82;2.75;;;13.90;85.70;;;;;;4731220;30;20158;-81
2021/06/23 04:04:22;;;;;;;6.15;2.80;;;13.90;85.70;;;;;;4724644;30;20056;-79
2021/06/23 04:06:54;;;;;;;;;;;13.90;85.80;;;;;;4736655;30;20143;-80
2021/06/23 04:09:21;;;;;;;5.07;1.88;;;13.80;86.20;;;;;;4720599;30;19930;-79
2021/06/23 04:11:56;;;;;;;4.85;2.25;;;13.80;86.00;;;;;;4704713;30;20063;-80
2021/06/23 04:14:24;;;;;;;3.70;2.45;;;13.90;85.90;;;;;;4722244;30;20076;-79
2021/06/23 04:16:55;;;;;;;4.40;2.58;;;13.90;85.80;;;;;;4723118;30;20574;-79
2021/06/23 04:19:24;;;;;;;5.18;2.08;;;13.90;85.80;;;;;;4721087;30;20052;-79
2021/06/23 04:21:58;;;;;;;4.70;2.15;;;13.90;85.70;;;;;;4720012;30;20136;-79
2021/06/23 04:24:26;;;;;;;4.30;2.15;;;14.00;85.80;;;;;;4720516;30;20462;-79
2021/06/23 04:26:55;;;;;;;4.68;2.30;;;14.00;85.80;;;;;;4720076;30;20052;-79
2021/06/23 04:29:22;;;;;;;4.20;2.17;;;14.00;85.70;;;;;;4708979;30;20052;-79
2021/06/23 04:31:53;;;;;;;4.40;2.35;;;14.00;85.60;;;;;;4720272;30;20403;-79
2021/06/23 04:34:24;;;;;;;9.15;2.72;;;14.00;85.60;;;;;;4712898;30;20052;-79
2021/06/23 04:36:56;;;;;;;3.63;2.33;;;14.10;85.70;;;;;;4733322;30;20146;-79
2021/06/23 04:39:23;;;;;;;4.03;2.22;;;14.00;85.60;;;;;;4689017;30;20300;-79
2021/06/23 04:42:06;;;;;;;3.25;2.38;;;14.10;85.60;;;;;;4735549;30;20506;-79
2021/06/23 04:44:34;;;;;;;6.85;2.35;;;14.00;85.60;;;;;;4720381;30;20052;-79
2021/06/23 04:47:02;;;;;;;4.90;2.65;;;14.00;85.60;;;;;;4730131;30;20076;-79
2021/06/23 04:49:30;;;;;;;3.17;1.92;;;14.00;85.60;;;;;;4720461;30;20058;-79
2021/06/23 04:52:12;;;;;;;4.93;2.50;;;14.10;85.70;;;;;;4736803;30;20052;-79
2021/06/23 04:54:39;;;;;;;3.85;2.38;;;14.10;85.70;;;;;;4709635;30;20505;-79
2021/06/23 04:57:08;;;;;;;2.95;2.45;;;14.10;85.60;;;;;;4735748;30;20045;-79
2021/06/23 04:59:36;;;;;;;3.65;2.42;;;14.10;85.60;;;;;;4740340;30;20041;-79
2021/06/23 05:02:04;;;;;;;5.70;2.55;;;14.20;85.70;;;;;;4712694;30;20422;-80
2021/06/23 05:04:33;;;;;;;5.18;2.50;;;14.20;85.60;;;;;;4744027;30;20044;-79
2021/06/23 05:07:05;;;;;;;3.30;2.30;;;14.20;85.50;;;;;;4743311;30;20067;-79
2021/06/23 05:09:32;;;;;;;5.13;2.63;;;14.20;85.50;;;;;;4701790;30;20052;-79
2021/06/23 05:11:59;;;;;;;5.47;2.53;;;14.20;85.60;;;;;;4719800;30;20052;-79
2021/06/23 05:14:26;;;;;;;5.32;2.83;;;14.20;85.60;;;;;;4720044;30;20575;-79
2021/06/23 05:16:53;;;;;;;4.25;2.85;;;14.20;85.40;;;;;;4709028;30;20450;-79
2021/06/23 05:19:20;;;;;;;5.13;2.72;;;14.20;85.40;;;;;;4731351;30;20048;-81
2021/06/23 05:21:51;;;;;;;4.13;2.78;;;14.20;85.40;;;;;;4735221;30;20045;-80
2021/06/23 05:24:18;;;;;;;5.75;3.33;;;14.30;85.40;;;;;;4705204;30;20135;-80
2021/06/23 05:26:45;;;;;;;6.78;2.65;;;14.30;85.20;;;;;;4722354;30;20051;-80
2021/06/23 05:29:12;;;;;;;6.97;3.40;;;14.40;85.10;;;;;;4727176;30;20120;-80
2021/06/23 05:31:39;;;;;;;7.78;3.03;;;14.40;85.10;;;;;;4753163;30;20051;-80
2021/06/23 05:34:09;;;;;;;3.33;2.35;;;14.40;85.10;;;;;;4726676;30;20398;-80
2021/06/23 05:36:44;;;;;;;3.53;2.55;;;14.40;85.10;;;;;;4703408;30;20517;-81
2021/06/23 05:39:11;;;;;;;5.03;2.72;;;14.40;85.20;;;;;;4737387;30;20477;-80
2021/06/23 05:41:38;;;;;;;7.13;3.10;;;14.50;85.20;;;;;;4727995;30;20110;-80
2021/06/23 05:44:05;;;;;;;5.43;3.33;;;14.60;85.10;;;;;;4717457;30;20123;-80
2021/06/23 05:46:32;;;;;;;4.93;2.25;;;14.60;85.00;;;;;;4737966;30;20045;-80
2021/06/23 05:48:59;;;;;;;4.53;2.00;;;14.70;84.90;;;;;;4724562;30;20059;-80
2021/06/23 05:51:26;;;;;;;4.72;2.67;;;14.70;84.80;;;;;;4743860;30;20522;-80
2021/06/23 05:53:53;;;;;;;6.35;3.03;;;14.90;84.80;;;;;;4712563;30;20177;-80
2021/06/23 05:56:20;;;;;;;4.40;2.78;;;14.90;84.50;;;;;;4745738;30;20111;-79
2021/06/23 05:58:47;;;;;;;4.30;2.70;;;15.00;84.50;;;;;;4741720;30;20115;-81
2021/06/23 06:01:14;;;;;;;5.97;2.90;;;15.20;84.30;;;;;;4728161;30;20056;-75
2021/06/23 06:03:41;;;;;;;5.63;2.90;;;15.30;83.90;;;;;;4725300;30;20059;-78
2021/06/23 06:06:09;;;;;;;6.72;2.67;;;15.50;83.80;;;;;;4689801;30;20486;-78
2021/06/23 06:08:36;;;;;;;6.97;2.40;;;15.50;83.50;;;;;;4703535;30;20051;-75
2021/06/23 06:11:03;;;;;;;5.25;2.28;;;15.60;83.20;;;;;;4711934;30;20064;-78
2021/06/23 06:13:30;;;;;;;4.50;3.03;;;15.70;83.10;;;;;;4701445;30;20044;-78
2021/06/23 06:15:57;;;;;;;5.90;2.28;;;15.70;82.90;;;;;;4715363;30;20085;-79
2021/06/23 06:18:24;;;;;;;4.55;2.08;;;15.70;82.90;;;;;;4696291;30;20485;-78
2021/06/23 06:20:57;;;;;;;2.70;1.98;;;15.80;82.90;;;;;;4712713;30;20391;-77
2021/06/23 06:23:24;;;;;;;;;;;15.80;82.60;;;;;;4729011;30;20053;-78
2021/06/23 06:25:52;;;;;;;3.72;2.10;;;15.80;82.80;;;;;;4727233;30;19927;-78
2021/06/23 06:28:20;;;;;;;6.18;2.42;;;15.90;82.80;;;;;;4709089;30;20053;-78
2021/06/23 06:30:47;;;;;;;4.15;2.30;;;15.90;82.60;;;;;;4699492;30;20053;-75
2021/06/23 06:33:15;;;;;;;5.15;2.13;;;16.00;82.70;;;;;;4719798;30;20057;-80
2021/06/23 06:35:42;;;;;;;6.43;2.03;;;16.10;82.50;;;;;;4709065;30;20056;-77
2021/06/23 06:38:09;;;;;;;4.68;1.65;;;16.20;82.50;;;;;;4722553;30;20048;-75
2021/06/23 06:40:36;;;;;;;5.15;1.98;;;16.30;82.40;;;;;;4733912;30;20053;-74
2021/06/23 06:43:03;;;;;;;6.20;2.13;;;16.30;82.20;;;;;;4719933;30;20107;-76
2021/06/23 06:45:31;;;;;;;4.75;2.33;;;16.30;82.50;;;;;;4722280;30;20052;-79
2021/06/23 06:48:00;;;;;;;5.32;2.42;;;16.20;81.90;;;;;;4704467;30;20068;-76
2021/06/23 06:50:27;;;;;;;3.00;1.80;;;16.30;81.90;;;;;;4733152;30;20536;-77
2021/06/23 06:52:55;;;;;;;6.78;2.38;;;16.20;81.80;;;;;;4736251;30;20044;-78
2021/06/23 06:55:22;;;;;;;5.10;1.83;;;16.10;82.10;;;;;;4727480;30;20044;-76
2021/06/23 06:57:50;;;;;;;5.05;2.10;;;16.10;81.50;;;;;;4694157;30;20509;-75
2021/06/23 07:00:20;;;;;;;4.43;1.88;;;16.10;81.30;;;;;;4732773;30;20053;-76
2021/06/23 07:02:48;;;;;;;2.40;2.03;;;16.10;81.50;;;;;;4722107;30;20056;-77
2021/06/23 07:05:15;;;;;;;3.70;2.00;;;16.10;81.60;;;;;;4721197;30;20514;-76
2021/06/23 07:07:42;;;;;;;4.85;1.80;;;16.10;81.60;;;;;;4718797;30;20465;-77
2021/06/23 07:10:09;;;;;;;2.90;1.90;;;16.20;81.40;;;;;;4712139;30;20565;-78
2021/06/23 07:12:36;;;;;;;3.58;1.60;;;16.20;81.40;;;;;;4718857;30;20090;-77
2021/06/23 07:15:05;;;;;;;4.47;1.90;;;16.30;81.50;;;;;;4727375;30;20458;-76
2021/06/23 07:17:33;;;;;;;6.43;1.90;;;16.30;80.90;;;;;;4737868;30;20049;-75
2021/06/23 07:20:00;;;;;;;3.58;1.80;;;16.30;81.00;;;;;;4722980;30;20048;-76
2021/06/23 07:22:27;;;;;;;3.72;1.90;;;16.40;81.10;;;;;;4743763;30;20072;-74
2021/06/23 07:24:54;;;;;;;4.18;1.58;;;16.50;81.20;;;;;;4723547;30;20071;-75
2021/06/23 07:27:25;;;;;;;3.85;1.52;;;16.50;80.90;;;;;;4739003;30;20132;-76
2021/06/23 07:29:52;;;;;;;3.67;1.65;;;16.50;81.00;;;;;;4700263;30;20092;-74
2021/06/23 07:37:14;;;;;;;5.90;1.90;;;16.60;80.90;;;;;;4741031;30;20550;-74
2021/06/23 07:39:42;;;;;;;6.32;1.60;;;16.70;80.60;;;;;;4726925;30;20533;-81
2021/06/23 07:42:10;;;;;;;4.82;1.90;;;16.60;80.40;;;;;;4718409;30;20059;-77
2021/06/23 07:44:46;;;;;;;5.85;2.30;;;16.70;79.90;;;;;;4739968;30;20110;-74
2021/06/23 07:47:22;;;;;;;5.30;2.00;;;16.60;80.20;;;;;;4724157;30;20086;-72
2021/06/23 07:49:50;;;;;;;3.72;1.95;;;16.60;80.10;;;;;;4722587;30;20057;-72
2021/06/23 08:10:39;;;;;;;5.15;1.88;;;17.30;79.70;;;;;;4727252;30;20120;-76
2021/06/23 08:13:07;;;;;;;3.28;1.75;;;17.40;79.40;;;;;;4705910;30;20463;-76
2021/06/23 08:15:38;;;;;;;4.80;1.75;;;17.40;79.30;;;;;;4736741;30;20040;-75
2021/06/23 08:18:06;;;;;;;5.75;2.00;;;17.50;79.30;;;;;;4712754;30;20505;-77
2021/06/23 08:20:35;;;;;;;3.63;1.77;;;17.60;79.10;;;;;;4728325;30;20120;-76
2021/06/23 08:23:03;;;;;;;3.50;1.77;;;17.80;78.90;;;;;;4727729;30;20052;-77
2021/06/23 08:25:31;;;;;;;4.38;1.70;;;17.90;78.10;;;;;;4715555;30;20049;-76
2021/06/23 08:27:58;;;;;;;3.65;2.30;;;18.00;77.90;;;;;;4721216;30;20506;-77
2021/06/23 08:30:25;;;;;;;4.22;1.88;;;18.10;78.00;;;;;;4705413;30;20045;-75
2021/06/23 08:32:52;;;;;;;3.88;1.48;;;18.20;77.80;;;;;;4716940;30;20067;-75
2021/06/23 08:35:19;;;;;;;3.70;1.63;;;18.30;77.40;;;;;;4723886;30;20057;-75
2021/06/23 08:37:47;;;;;;;5.18;1.67;;;18.50;77.00;;;;;;4734116;30;20509;-76
2021/06/23 08:40:17;;;;;;;2.33;1.30;;;18.60;76.70;;;;;;4731838;30;20059;-78
2021/06/23 08:42:51;;;;;;;3.28;1.30;;;18.60;76.30;;;;;;4721394;30;20533;-76
2021/06/23 08:45:19;;;;;;;3.90;1.33;;;18.70;76.60;;;;;;4739537;30;20107;-82
2021/06/23 08:47:48;;;;;;;3.08;1.10;;;18.70;76.50;;;;;;4736111;30;20080;-79
2021/06/23 08:50:18;;;;;;;2.40;1.35;;;18.90;76.40;;;;;;4709052;30;20125;-79
2021/06/23 08:52:46;;;;;;;6.13;1.88;;;18.90;75.60;;;;;;4726945;30;20072;-80
2021/06/23 08:55:22;;;;;;;3.00;1.45;;;18.90;75.60;;;;;;4730636;30;20048;-76
2021/06/23 08:57:52;;;;;;;2.35;1.00;;;18.90;75.80;;;;;;4739247;30;20401;-77
2021/06/23 09:00:21;;;;;;;4.13;1.20;;;19.10;75.20;;;;;;4742618;30;20059;-77
2021/06/23 09:02:49;;;;;;;4.28;1.50;;;19.00;73.50;;;;;;4718904;30;20139;-76
2021/06/23 09:05:17;;;;;;;4.00;1.50;;;18.90;73.40;;;;;;4719796;30;20060;-76
2021/06/23 09:08:03;;;;;;;3.63;1.40;;;18.80;73.90;;;;;;4721380;30;20443;-76
2021/06/23 09:10:35;;;;;;;2.22;1.10;;;18.90;74.20;;;;;;4738376;30;20075;-75
2021/06/23 09:13:07;;;;;;;2.33;1.00;;;19.10;74.10;;;;;;4720166;30;20056;-76
2021/06/23 09:15:47;;;;;;;4.30;1.25;;;19.10;74.20;;;;;;4739374;30;20494;-75
2021/06/23 09:18:23;;;;;;;5.97;1.08;;;19.20;73.80;;;;;;4737011;30;20052;-75
2021/06/23 09:20:53;;;;;;;2.45;1.00;;;19.20;73.90;;;;;;4741581;30;20098;-75
2021/06/23 09:23:54;;;;;;;4.30;1.17;;;19.20;73.90;;;;;;4724231;30;20103;-75
2021/06/23 09:26:35;;;;;;;2.85;1.40;;;19.20;72.50;;;;;;4730416;30;20397;-76
2021/06/23 09:29:14;;;;;;;3.15;1.17;;;19.20;73.10;;;;;;4721560;30;20447;-76
2021/06/23 09:32:02;;;;;;;6.05;1.30;;;19.30;73.00;;;;;;4733323;30;20490;-76
2021/06/23 09:34:35;;;;;;;2.53;0.90;;;19.40;72.30;;;;;;4720054;30;20426;-75
2021/06/23 09:37:24;;;;;;;2.60;1.13;;;19.30;72.70;;;;;;4733712;30;20057;-73
2021/06/23 09:40:16;;;;;;;3.88;1.00;;;19.20;72.80;;;;;;4735733;30;20091;-76
2021/06/23 09:42:51;;;;;;;2.58;1.08;;;19.20;72.50;;;;;;4737887;30;20043;-75
2021/06/23 09:45:19;;;;;;;2.72;0.90;;;19.20;72.50;;;;;;4723940;30;20114;-75
2021/06/23 09:48:03;;;;;;;2.92;1.00;;;19.30;72.30;;;;;;4721047;30;20048;-74
2021/06/23 09:50:32;;;;;;;2.00;0.90;;;19.30;72.70;;;;;;4739425;30;20127;-75
2021/06/23 09:53:13;;;;;;;2.25;0.93;;;19.40;72.20;;;;;;4732181;30;20045;-75
2021/06/23 09:55:42;;;;;;;2.97;0.80;;;19.50;71.90;;;;;;4718115;30;20044;-75
2021/06/23 09:58:14;;;;;;;4.53;1.55;;;19.60;71.60;;;;;;4724271;30;20099;-75
2021/06/23 10:01:11;;;;;;;2.08;1.23;;;19.50;71.00;;;;;;4701306;30;20158;-76
2021/06/23 10:03:55;;;;;;;1.92;1.08;;;19.50;70.70;;;;;;4737689;30;20082;-76
2021/06/23 10:06:24;;;;;;;3.65;1.17;;;19.60;70.40;;;;;;4726578;30;20080;-75
2021/06/23 10:09:10;;;;;;;3.67;0.90;;;19.50;70.70;;;;;;4708942;30;20510;-77
2021/06/23 10:11:37;;;;;;;1.58;0.80;;;19.50;70.80;;;;;;4718214;30;20048;-78
2021/06/23 10:14:09;;;;;;;3.80;1.05;;;19.50;70.90;;;;;;4714955;30;20063;-76
2021/06/23 10:16:38;;;;;;;3.63;0.88;;;19.60;70.70;;;;;;4736071;30;20049;-77
2021/06/23 10:19:06;;;;;;;3.88;1.23;;;19.80;70.60;;;;;;4741901;30;20045;-76
2021/06/23 10:21:34;;;;;;;2.70;0.75;;;19.80;70.00;;;;;;4735382;30;20048;-75
2021/06/23 10:24:04;;;;;;;1.17;0.80;;;19.90;69.90;;;;;;4722083;30;20088;-76
2021/06/23 10:26:31;;;;;;;1.75;0.90;;;20.10;69.60;;;;;;4722622;30;20052;-75
2021/06/23 10:28:59;;;;;;;2.90;1.05;;;20.30;69.40;;;;;;4737660;30;20091;-75
2021/06/23 10:31:27;;;;;;;2.20;0.80;;;20.50;69.20;;;;;;4708372;30;20121;-75
2021/06/23 10:33:55;;;;;;;3.58;1.10;;;20.70;68.60;;;;;;4722155;30;20056;-76
2021/06/23 10:36:25;;;;;;;3.92;1.33;;;20.80;68.20;;;;;;4719829;30;20391;-76
2021/06/23 10:38:54;;;;;;;2.90;0.70;;;21.00;67.00;;;;;;4716242;30;20498;-75
2021/06/23 10:41:22;;;;;;;2.47;0.60;;;21.00;67.10;;;;;;4735222;30;20045;-77
2021/06/23 10:44:17;;;;;;;3.42;0.90;;;21.10;66.70;;;;;;4707039;30;20048;-76
2021/06/23 10:46:45;;;;;;;2.22;1.05;;;21.20;65.80;;;;;;4725443;30;20053;-77
2021/06/23 10:49:16;;;;;;;2.33;1.00;;;21.20;65.60;;;;;;4712007;30;20053;-75
2021/06/23 10:51:48;;;;;;;3.42;0.85;;;21.30;65.20;;;;;;4732275;30;20041;-75
2021/06/23 10:54:27;;;;;;;3.60;0.67;;;21.40;64.70;;;;;;4703923;30;20052;-72
2021/06/23 10:56:54;;;;;;;2.38;1.10;;;21.60;64.10;;;;;;4725824;30;20707;-73
2021/06/23 10:59:34;;;;;;;5.15;1.33;;;21.70;63.70;;;;;;4688884;30;20099;-73
2021/06/23 11:02:13;;;;;;;4.55;0.90;;;21.80;62.80;;;;;;4712970;30;20045;-73
2021/06/23 11:05:13;;;;;;;3.13;0.80;;;21.80;63.50;;;;;;4722584;30;20053;-71
2021/06/23 11:07:52;;;;;;;1.98;0.80;;;21.90;62.30;;;;;;4720850;30;20065;-72
2021/06/23 11:10:27;;;;;;;2.00;0.70;;;21.90;62.30;;;;;;4721916;30;20049;-71
2021/06/23 11:13:06;;;;;;;2.15;0.90;;;22.00;62.10;;;;;;4727247;30;20040;-73
2021/06/23 11:15:42;;;;;;;1.67;0.70;;;21.90;61.30;;;;;;4711925;30;20053;-73
2021/06/23 11:18:18;;;;;;;2.83;0.80;;;21.80;61.30;;;;;;4729970;30;20401;-73
2021/06/23 11:20:55;;;;;;;2.38;1.08;;;21.90;61.00;;;;;;4729715;30;20045;-73
2021/06/23 11:23:53;;;;;;;2.95;1.35;;;22.00;60.90;;;;;;4734455;30;20095;-74
2021/06/23 11:26:23;;;;;;;2.08;0.77;;;22.10;60.40;;;;;;4729683;30;20057;-73
2021/06/23 11:29:09;;;;;;;2.38;0.80;;;22.20;60.00;;;;;;4717304;30;20048;-75
2021/06/23 11:31:59;;;;;;;1.33;0.60;;;22.30;59.70;;;;;;4728286;30;20044;-74
2021/06/23 11:34:42;;;;;;;1.50;0.57;;;22.50;59.30;;;;;;4716516;30;20513;-73
2021/06/23 11:37:13;;;;;;;2.55;0.50;;;22.60;59.10;;;;;;4714885;30;20119;-74
2021/06/23 11:39:41;;;;;;;3.58;0.70;;;22.60;59.10;;;;;;4729454;30;20049;-75
2021/06/23 11:42:08;;;;;;;3.38;0.80;;;22.60;58.60;;;;;;4723517;30;20053;-74
2021/06/23 11:44:37;;;;;;;2.22;0.60;;;22.60;58.30;;;;;;4717760;30;20498;-74
2021/06/23 11:47:05;;;;;;;2.08;0.50;;;22.70;58.30;;;;;;4734166;30;20063;-74
2021/06/23 11:49:35;;;;;;;1.52;0.40;;;22.80;58.20;;;;;;4705809;30;20414;-71
2021/06/23 11:52:04;;;;;;;2.42;0.45;;;22.80;58.10;;;;;;4713706;30;20057;-73
2021/06/23 11:54:36;;;;;;;2.40;0.50;;;22.80;58.00;;;;;;4719512;30;20059;-74
2021/06/23 11:57:05;;;;;;;2.00;0.50;;;22.80;58.10;;;;;;4731732;30;20379;-74
2021/06/23 11:59:32;;;;;;;1.30;0.60;;;22.90;57.80;;;;;;4728287;30;20049;-72
2021/06/23 12:01:59;;;;;;;2.35;0.70;;;23.10;57.60;;;;;;4728990;30;20406;-80
2021/06/23 12:04:28;;;;;;;3.20;0.88;;;23.10;57.40;;;;;;4724999;30;20072;-79
2021/06/23 12:06:55;;;;;;;2.80;0.98;;;23.10;56.90;;;;;;4728847;30;20053;-72
2021/06/23 12:09:22;;;;;;;2.92;0.80;;;23.50;56.60;;;;;;4716941;30;20186;-73
2021/06/23 12:11:49;;;;;;;2.15;0.60;;;23.80;55.30;;;;;;4720971;30;20143;-74
2021/06/23 12:14:16;;;;;;;2.08;0.50;;;24.30;54.60;;;;;;4729299;30;20165;-79
2021/06/23 12:16:44;;;;;;;1.83;0.63;;;24.60;53.90;;;;;;4722524;30;20817;-78
2021/06/23 12:19:11;;;;;;;3.60;0.68;;;24.50;53.90;;;;;;4733978;30;20071;-80
2021/06/23 12:21:38;;;;;;;3.25;0.95;;;24.30;54.00;;;;;;4735353;30;20047;-79
2021/06/23 12:24:06;;;;;;;2.05;0.77;;;23.80;54.30;;;;;;4716261;30;20454;-79
2021/06/23 12:26:33;;;;;;;2.28;0.55;;;23.40;55.00;;;;;;4727211;30;20045;-78
2021/06/23 12:29:00;;;;;;;3.33;0.60;;;23.20;55.40;;;;;;4714338;30;20048;-77
2021/06/23 12:31:27;;;;;;;2.60;0.60;;;23.20;55.60;;;;;;4729162;30;20045;-79
2021/06/23 12:33:54;;;;;;;2.10;0.70;;;22.90;55.20;;;;;;4729395;30;20079;-79
2021/06/23 12:36:27;;;;;;;1.40;0.73;;;22.70;55.50;;;;;;4715950;30;20049;-77
2021/06/23 12:38:55;;;;;;;2.17;0.80;;;22.60;55.50;;;;;;4727730;30;20053;-77
2021/06/23 12:41:22;;;;;;;3.38;0.98;;;22.80;55.60;;;;;;4713639;30;20610;-78
2021/06/23 12:43:49;;;;;;;2.15;0.90;;;22.80;54.40;;;;;;4710646;30;20091;-78
2021/06/23 12:46:16;;;;;;;2.65;0.82;;;22.80;54.90;;;;;;4720238;30;20581;-80
2021/06/23 12:48:43;;;;;;;1.80;0.75;;;22.90;54.40;;;;;;4736407;30;20048;-79
2021/06/23 12:51:10;;;;;;;1.70;0.80;;;22.90;54.30;;;;;;4719361;30;20513;-82
2021/06/23 12:53:37;;;;;;;1.85;0.60;;;23.20;54.40;;;;;;4730148;30;20048;-81
2021/06/23 12:56:04;;;;;;;3.28;0.90;;;23.50;53.80;;;;;;4716555;30;20056;-80
2021/06/23 12:58:32;;;;;;;3.50;1.00;;;23.50;53.50;;;;;;4734486;30;20490;-80
2021/06/23 13:00:59;;;;;;;2.47;0.70;;;23.40;53.90;;;;;;4734209;30;20080;-82
2021/06/23 13:03:26;;;;;;;4.68;0.63;;;23.50;53.80;;;;;;4740459;30;20087;-79
2021/06/23 13:05:58;;;;;;;2.47;0.60;;;23.50;53.80;;;;;;4743240;30;20092;-79
2021/06/23 13:08:27;;;;;;;0.65;0.40;;;23.40;53.90;;;;;;4717334;30;20326;-79
2021/06/23 13:10:59;;;;;;;2.40;0.60;;;23.30;54.00;;;;;;4716285;30;20130;-79
2021/06/23 13:13:27;;;;;;;1.88;0.90;;;23.10;54.00;;;;;;4704204;30;20552;-81
2021/06/23 13:15:57;;;;;;;1.40;0.55;;;22.90;54.30;;;;;;4729269;30;20048;-81
2021/06/23 13:18:25;;;;;;;4.32;0.70;;;22.70;54.60;;;;;;4712705;30;20068;-82
2021/06/23 13:20:53;;;;;;;3.33;0.57;;;22.60;55.00;;;;;;4717752;30;20059;-79
2021/06/23 13:23:19;;;;;;;3.65;1.00;;;22.50;54.90;;;;;;4734358;30;20060;-79
2021/06/23 13:25:47;;;;;;;4.47;1.05;;;22.30;55.20;;;;;;4704434;30;20064;-77
2021/06/23 13:28:14;;;;;;;2.92;0.80;;;22.20;55.30;;;;;;4743928;30;20044;-79
2021/06/23 13:30:41;;;;;;;2.85;0.70;;;22.00;55.30;;;;;;4725839;30;20556;-80
2021/06/23 13:33:08;;;;;;;2.70;0.80;;;21.90;55.20;;;;;;4735004;30;20052;-80
2021/06/23 13:35:35;;;;;;;3.22;0.60;;;21.70;55.40;;;;;;4724604;30;20060;-83
2021/06/23 13:38:05;;;;;;;2.42;0.60;;;21.60;55.70;;;;;;4717447;30;20139;-82
2021/06/23 13:40:32;;;;;;;2.88;0.60;;;21.60;55.80;;;;;;4714234;30;20057;-81
2021/06/23 13:42:59;;;;;;;3.53;0.80;;;21.50;55.70;;;;;;4742456;30;20048;-82
2021/06/23 13:45:26;;;;;;;3.20;0.65;;;21.40;55.90;;;;;;4716851;30;20753;-80
2021/06/23 13:47:54;;;;;;;2.03;0.60;;;21.30;55.80;;;;;;4710096;30;20122;-80
2021/06/23 13:50:21;;;;;;;2.75;0.88;;;21.20;55.90;;;;;;4718031;30;20045;-79
2021/06/23 13:52:50;;;;;;;2.20;0.68;;;21.20;56.10;;;;;;4726263;30;20037;-79
2021/06/23 13:55:23;;;;;;;1.98;0.70;;;21.20;56.30;;;;;;4720448;30;20132;-78